createdAt,value
2023-05-15T00:00:37.767Z,1.30
2023-05-15T00:03:05.004Z,1.20
2023-05-15T00:05:31.793Z,1.38
2023-05-15T00:07:58.735Z,2.63
2023-05-15T00:10:25.473Z,2.35
2023-05-15T00:12:52.219Z,0.98
2023-05-15T00:15:18.961Z,1.50
2023-05-15T00:17:45.790Z,1.67
2023-05-15T00:20:13.102Z,1.50
2023-05-15T00:22:40.964Z,1.77
2023-05-15T00:25:08.071Z,1.63
2023-05-15T00:27:34.825Z,1.23
2023-05-15T00:30:01.522Z,1.20
2023-05-15T00:32:28.397Z,1.20
2023-05-15T00:34:55.306Z,1.20
2023-05-15T00:37:23.270Z,1.23
2023-05-15T00:39:50.015Z,1.20
2023-05-15T00:42:18.425Z,1.35
2023-05-15T00:44:45.952Z,1.88
2023-05-15T00:47:13.833Z,1.33
2023-05-15T00:49:41.812Z,1.20
2023-05-15T00:52:11.511Z,1.13
2023-05-15T00:54:38.252Z,1.75
2023-05-15T00:57:06.619Z,2.28
2023-05-15T00:59:34.710Z,1.10
2023-05-15T01:02:01.599Z,1.38
2023-05-15T01:04:29.614Z,1.73
2023-05-15T01:06:56.951Z,1.35
2023-05-15T01:09:30.132Z,1.02
2023-05-15T01:11:59.204Z,1.40
2023-05-15T01:14:25.965Z,2.67
2023-05-15T01:16:53.699Z,1.08
2023-05-15T01:19:20.696Z,1.08
2023-05-15T01:22:15.553Z,1.10
2023-05-15T01:25:03.980Z,0.75
2023-05-15T01:27:37.253Z,1.08
2023-05-15T01:30:18.378Z,1.08
2023-05-15T01:33:02.728Z,1.10
2023-05-15T01:35:45.342Z,1.10
2023-05-15T01:38:27.849Z,1.10
2023-05-15T01:41:03.392Z,1.20
2023-05-15T01:43:33.788Z,1.17
2023-05-15T01:46:00.883Z,1.92
2023-05-15T01:48:29.141Z,0.95
2023-05-15T01:51:01.417Z,1.67
2023-05-15T01:55:56.995Z,1.02
2023-05-15T01:58:26.879Z,2.00
2023-05-15T02:00:54.126Z,1.58
2023-05-15T02:03:21.379Z,1.67
2023-05-15T02:05:49.225Z,2.55
2023-05-15T02:08:16.846Z,1.20
2023-05-15T02:10:44.477Z,1.33
2023-05-15T02:13:12.740Z,1.63
2023-05-15T02:15:39.620Z,1.50
2023-05-15T02:18:06.622Z,3.85
2023-05-15T02:20:33.364Z,1.35
2023-05-15T02:23:00.057Z,1.30
2023-05-15T02:25:38.749Z,2.03
2023-05-15T02:28:11.666Z,1.55
2023-05-15T02:30:55.503Z,1.35
2023-05-15T02:33:42.616Z,2.65
2023-05-15T02:36:14.401Z,1.17
2023-05-15T02:38:53.782Z,1.38
2023-05-15T02:41:23.196Z,1.00
2023-05-15T02:43:52.281Z,1.80
2023-05-15T02:46:21.443Z,1.17
2023-05-15T02:48:48.957Z,1.27
2023-05-15T02:51:16.053Z,1.48
2023-05-15T02:53:43.682Z,3.30
2023-05-15T02:56:10.601Z,2.53
2023-05-15T02:58:38.137Z,1.10
2023-05-15T03:01:05.106Z,1.08
2023-05-15T03:03:31.913Z,3.70
2023-05-15T03:06:00.899Z,1.83
2023-05-15T03:08:29.570Z,2.35
2023-05-15T03:10:56.206Z,2.10
2023-05-15T03:13:22.895Z,1.13
2023-05-15T03:15:49.668Z,1.42
2023-05-15T03:18:19.063Z,1.55
2023-05-15T03:20:49.265Z,1.23
2023-05-15T03:23:16.183Z,1.95
2023-05-15T03:25:42.865Z,1.73
2023-05-15T03:28:09.681Z,1.02
2023-05-15T03:30:36.388Z,1.23
2023-05-15T03:33:06.791Z,1.00
2023-05-15T03:35:33.646Z,1.30
2023-05-15T03:38:00.490Z,1.38
2023-05-15T03:40:29.707Z,1.40
2023-05-15T03:42:56.406Z,1.48
2023-05-15T03:45:23.643Z,1.40
2023-05-15T03:47:50.907Z,0.88
2023-05-15T03:50:18.076Z,1.08
2023-05-15T03:52:44.778Z,0.90
2023-05-15T03:55:12.041Z,1.30
2023-05-15T03:57:38.896Z,1.17
2023-05-15T04:00:10.323Z,1.40
2023-05-15T04:02:37.595Z,0.80
2023-05-15T04:05:05.486Z,1.88
2023-05-15T04:07:34.082Z,1.48
2023-05-15T04:10:01.721Z,1.65
2023-05-15T04:12:29.810Z,2.50
2023-05-15T04:15:13.235Z,1.85
2023-05-15T04:17:39.969Z,2.35
2023-05-15T04:20:07.621Z,2.85
2023-05-15T04:22:34.378Z,2.22
2023-05-15T04:25:01.042Z,2.58
2023-05-15T04:27:27.945Z,2.20
2023-05-15T04:29:54.650Z,2.50
2023-05-15T04:32:22.055Z,2.10
2023-05-15T04:34:48.740Z,2.22
2023-05-15T04:37:15.692Z,2.42
2023-05-15T04:39:42.389Z,3.50
2023-05-15T04:42:09.084Z,2.63
2023-05-15T04:44:35.990Z,2.45
2023-05-15T04:47:02.783Z,2.33
2023-05-15T04:49:29.472Z,1.35
2023-05-15T04:51:56.185Z,1.30
2023-05-15T04:54:22.929Z,1.48
2023-05-15T04:56:49.612Z,1.20
2023-05-15T04:59:17.644Z,1.48
2023-05-15T05:01:45.658Z,2.35
2023-05-15T05:04:12.429Z,1.38
2023-05-15T05:06:39.184Z,1.17
2023-05-15T05:09:05.967Z,1.77
2023-05-15T05:11:32.692Z,1.20
2023-05-15T05:13:59.400Z,1.88
2023-05-15T05:16:26.146Z,3.65
2023-05-15T05:18:52.938Z,1.30
2023-05-15T05:21:19.739Z,1.08
2023-05-15T05:23:47.348Z,1.88
2023-05-15T05:26:14.023Z,1.40
2023-05-15T05:28:40.890Z,1.85
2023-05-15T05:31:07.681Z,1.20
2023-05-15T05:33:34.727Z,1.63
2023-05-15T05:36:01.389Z,1.48
2023-05-15T05:38:28.098Z,1.38
2023-05-15T05:40:54.876Z,1.88
2023-05-15T05:43:21.650Z,1.30
2023-05-15T05:45:48.537Z,2.53
2023-05-15T05:48:15.402Z,1.17
2023-05-15T05:50:42.449Z,1.23
2023-05-15T05:53:09.270Z,1.50
2023-05-15T05:55:36.109Z,1.50
2023-05-15T05:58:06.410Z,1.65
2023-05-15T06:00:35.483Z,1.00
2023-05-15T06:03:02.968Z,1.25
2023-05-15T06:05:29.819Z,1.23
2023-05-15T06:07:56.919Z,1.45
2023-05-15T06:10:23.790Z,1.52
2023-05-15T06:12:50.589Z,1.48
2023-05-15T06:15:17.263Z,1.35
2023-05-15T06:17:43.992Z,1.73
2023-05-15T06:20:10.977Z,1.27
2023-05-15T06:22:39.081Z,1.50
2023-05-15T06:25:06.587Z,1.40
2023-05-15T06:27:34.590Z,1.35
2023-05-15T06:30:01.369Z,1.85
2023-05-15T06:32:29.595Z,1.27
2023-05-15T06:34:56.392Z,1.52
2023-05-15T06:37:23.042Z,0.98
2023-05-15T06:39:49.764Z,1.33
2023-05-15T06:42:16.456Z,1.20
2023-05-15T06:44:43.166Z,2.67
2023-05-15T06:47:10.022Z,1.35
2023-05-15T06:49:36.832Z,1.77
2023-05-15T06:52:03.732Z,1.50
2023-05-15T06:54:30.420Z,1.55
2023-05-15T06:56:57.092Z,1.00
2023-05-15T06:59:23.808Z,1.58
2023-05-15T07:01:50.749Z,1.38
2023-05-15T07:04:17.556Z,1.30
2023-05-15T07:06:44.291Z,1.13
2023-05-15T07:09:13.134Z,1.20
2023-05-15T07:11:40.291Z,1.50
2023-05-15T07:14:08.081Z,1.23
2023-05-15T07:16:34.799Z,1.23
2023-05-15T07:19:01.725Z,1.58
2023-05-15T07:21:31.167Z,1.70
2023-05-15T07:23:58.519Z,3.35
2023-05-15T07:26:34.296Z,2.17
2023-05-15T07:29:05.540Z,1.48
2023-05-15T07:31:33.655Z,1.30
2023-05-15T07:34:00.436Z,1.63
2023-05-15T07:36:27.162Z,1.77
2023-05-15T07:38:53.908Z,1.23
2023-05-15T07:41:20.960Z,1.50
2023-05-15T07:43:47.626Z,1.17
2023-05-15T07:46:14.447Z,1.70
2023-05-15T07:48:41.263Z,1.90
2023-05-15T07:51:08.462Z,1.33
2023-05-15T07:53:35.203Z,1.10
2023-05-15T07:56:01.924Z,1.15
2023-05-15T07:58:28.802Z,0.95
2023-05-15T08:00:55.509Z,2.25
2023-05-15T08:03:22.448Z,1.38
2023-05-15T08:05:49.280Z,2.15
2023-05-15T08:08:16.097Z,1.25
2023-05-15T08:10:42.861Z,1.33
2023-05-15T08:13:09.597Z,1.25
2023-05-15T08:15:36.324Z,1.45
2023-05-15T08:18:08.530Z,1.00
2023-05-15T08:20:35.278Z,1.05
2023-05-15T08:23:02.023Z,0.88
2023-05-15T08:25:28.699Z,0.90
2023-05-15T08:27:55.423Z,0.70
2023-05-15T08:30:22.264Z,0.55
2023-05-15T08:32:49.305Z,0.70
2023-05-15T08:35:16.156Z,0.95
2023-05-15T08:37:42.801Z,0.50
2023-05-15T08:40:10.812Z,0.80
2023-05-15T08:42:45.813Z,0.95
2023-05-15T08:45:14.000Z,1.00
2023-05-15T08:47:42.481Z,0.65
2023-05-15T08:50:14.208Z,0.50
2023-05-15T08:55:11.765Z,1.10
2023-05-15T08:57:40.231Z,1.08
2023-05-15T09:00:09.497Z,0.88
2023-05-15T09:02:37.616Z,0.60
2023-05-15T09:05:06.256Z,0.68
2023-05-15T09:07:34.121Z,0.65
2023-05-15T09:10:03.800Z,0.68
2023-05-15T09:12:34.160Z,0.70
2023-05-15T09:15:18.129Z,0.95
2023-05-15T09:17:45.879Z,0.70
2023-05-15T09:20:36.401Z,0.70
2023-05-15T09:23:05.500Z,0.50
2023-05-15T09:25:40.676Z,0.75
2023-05-15T09:28:10.664Z,0.80
2023-05-15T09:30:42.291Z,0.70
2023-05-15T09:33:09.795Z,1.05
2023-05-15T09:35:38.709Z,0.85
2023-05-15T09:38:10.643Z,0.75
2023-05-15T09:40:39.241Z,0.85
2023-05-15T09:43:05.953Z,0.50
2023-05-15T09:45:32.644Z,0.50
2023-05-15T09:48:07.289Z,0.68
2023-05-15T09:50:36.517Z,2.13
2023-05-15T09:53:04.204Z,0.50
2023-05-15T09:55:34.855Z,0.50
2023-05-15T09:58:15.719Z,0.88
2023-05-15T10:00:47.357Z,0.70
2023-05-15T10:03:19.852Z,0.70
2023-05-15T10:05:46.997Z,0.60
2023-05-15T10:08:15.947Z,0.70
2023-05-15T10:10:43.785Z,0.57
2023-05-15T10:13:11.936Z,0.63
2023-05-15T10:15:39.868Z,0.40
2023-05-15T10:18:07.984Z,0.60
2023-05-15T10:20:36.035Z,0.95
2023-05-15T10:23:06.001Z,0.77
2023-05-15T10:25:45.893Z,1.13
2023-05-15T10:28:12.680Z,0.50
2023-05-15T10:30:39.537Z,0.32
2023-05-15T10:33:07.575Z,0.38
2023-05-15T10:35:36.322Z,0.68
2023-05-15T10:38:06.194Z,1.33
2023-05-15T10:40:36.800Z,0.35
2023-05-15T10:43:05.055Z,0.43
2023-05-15T10:45:32.863Z,0.90
2023-05-15T10:48:01.115Z,0.50
2023-05-15T10:50:28.137Z,0.75
2023-05-15T10:52:56.053Z,0.40
2023-05-15T10:55:23.316Z,0.80
2023-05-15T10:57:50.193Z,0.80
2023-05-15T11:00:23.253Z,0.52
2023-05-15T11:02:56.572Z,0.32
2023-05-15T11:05:24.404Z,0.60
2023-05-15T11:08:27.419Z,0.47
2023-05-15T11:10:54.605Z,0.65
2023-05-15T11:13:21.897Z,0.30
2023-05-15T11:15:49.222Z,0.50
2023-05-15T11:18:16.689Z,0.30
2023-05-15T11:20:52.485Z,0.60
2023-05-15T11:23:23.233Z,0.30
2023-05-15T11:26:01.680Z,0.30
2023-05-15T11:28:30.031Z,0.40
2023-05-15T11:31:07.103Z,0.70
2023-05-15T11:33:33.962Z,0.30
2023-05-15T11:36:01.678Z,0.60
2023-05-15T11:38:28.510Z,0.50
2023-05-15T11:40:58.694Z,0.40
2023-05-15T11:43:32.260Z,0.50
2023-05-15T11:46:10.280Z,0.80
2023-05-15T11:48:44.793Z,0.40
2023-05-15T11:51:19.975Z,0.68
2023-05-15T11:53:47.496Z,0.30
2023-05-15T11:56:22.998Z,0.47
2023-05-15T11:58:50.872Z,0.38
2023-05-15T12:01:17.835Z,0.40
2023-05-15T12:03:47.850Z,0.57
2023-05-15T12:06:14.901Z,0.50
2023-05-15T12:08:42.271Z,0.60
2023-05-15T12:11:10.953Z,0.52
2023-05-15T12:13:37.685Z,0.43
2023-05-15T12:16:05.210Z,0.68
2023-05-15T12:18:33.082Z,0.60
2023-05-15T12:21:00.645Z,0.57
2023-05-15T12:23:29.301Z,0.65
2023-05-15T12:26:03.433Z,0.40
2023-05-15T12:28:31.672Z,0.63
2023-05-15T12:30:59.558Z,0.57
2023-05-15T12:33:26.689Z,0.50
2023-05-15T12:36:00.257Z,0.30
2023-05-15T12:38:28.185Z,0.60
2023-05-15T12:40:55.358Z,0.40
2023-05-15T12:43:25.175Z,0.40
2023-05-15T12:45:56.123Z,0.50
2023-05-15T12:48:32.758Z,0.30
2023-05-15T12:51:07.645Z,0.50
2023-05-15T12:53:35.077Z,0.50
2023-05-15T12:56:02.314Z,0.40
2023-05-15T12:58:29.168Z,0.50
2023-05-15T13:00:57.077Z,0.65
2023-05-15T13:03:25.253Z,0.75
2023-05-15T13:05:53.139Z,0.32
2023-05-15T13:08:19.864Z,0.40
2023-05-15T13:10:47.834Z,0.40
2023-05-15T13:13:16.733Z,0.57
2023-05-15T13:15:44.858Z,0.50
2023-05-15T13:18:18.485Z,1.13
2023-05-15T13:20:47.272Z,0.45
2023-05-15T13:23:24.959Z,0.38
2023-05-15T13:25:51.697Z,0.47
2023-05-15T13:28:18.424Z,0.93
2023-05-15T13:30:45.971Z,1.17
2023-05-15T13:33:13.058Z,1.20
2023-05-15T13:35:43.399Z,0.80
2023-05-15T13:38:11.869Z,0.75
2023-05-15T13:40:39.209Z,0.80
2023-05-15T13:43:08.788Z,1.05
2023-05-15T13:45:35.830Z,0.75
2023-05-15T13:48:02.677Z,0.60
2023-05-15T13:50:29.453Z,0.77
2023-05-15T13:52:56.468Z,0.50
2023-05-15T13:55:23.555Z,0.90
2023-05-15T13:57:51.448Z,1.10
2023-05-15T14:00:18.729Z,0.95
2023-05-15T14:02:45.523Z,1.90
2023-05-15T14:05:14.577Z,1.10
2023-05-15T14:07:42.196Z,0.80
2023-05-15T14:10:09.460Z,0.82
2023-05-15T14:12:37.217Z,1.85
2023-05-15T14:15:04.407Z,0.50
2023-05-15T14:17:31.329Z,1.27
2023-05-15T14:19:58.044Z,0.93
2023-05-15T14:22:25.245Z,0.75
2023-05-15T14:24:53.379Z,0.70
2023-05-15T14:27:21.377Z,0.85
2023-05-15T14:29:49.498Z,0.98
2023-05-15T14:32:16.892Z,0.73
2023-05-15T14:34:43.971Z,0.70
2023-05-15T14:37:10.891Z,0.60
2023-05-15T14:39:37.738Z,1.27
2023-05-15T14:42:04.789Z,1.55
2023-05-15T14:44:31.643Z,0.50
2023-05-15T14:47:12.850Z,0.50
2023-05-15T14:49:40.162Z,0.67
2023-05-15T14:52:09.233Z,0.55
2023-05-15T14:54:36.567Z,1.50
2023-05-15T14:57:04.036Z,1.00
2023-05-15T14:59:31.004Z,1.20
2023-05-15T15:01:57.815Z,0.57
2023-05-15T15:04:26.826Z,0.70
2023-05-15T15:06:57.163Z,1.15
2023-05-15T15:09:25.652Z,0.80
2023-05-15T15:11:53.815Z,0.60
2023-05-15T15:14:20.957Z,1.17
2023-05-15T15:16:48.113Z,1.17
2023-05-15T15:19:16.722Z,0.50
2023-05-15T15:21:45.170Z,0.57
2023-05-15T15:24:11.937Z,0.70
2023-05-15T15:26:38.696Z,0.77
2023-05-15T15:29:05.885Z,0.35
2023-05-15T15:31:32.984Z,1.05
2023-05-15T15:33:59.830Z,0.77
2023-05-15T15:36:26.590Z,0.77
2023-05-15T15:38:53.598Z,0.70
2023-05-15T15:41:23.718Z,0.60
2023-05-15T15:43:50.673Z,0.52
2023-05-15T15:46:17.535Z,0.70
2023-05-15T15:48:44.587Z,0.50
2023-05-15T15:51:12.519Z,0.80
2023-05-15T15:53:40.488Z,0.60
2023-05-15T15:56:07.670Z,1.00
2023-05-15T15:58:34.478Z,0.70
2023-05-15T16:01:02.965Z,0.50
2023-05-15T16:03:31.846Z,0.35
2023-05-15T16:06:00.952Z,0.60
2023-05-15T16:08:27.706Z,0.70
2023-05-15T16:10:55.117Z,0.85
2023-05-15T16:13:21.915Z,0.47
2023-05-15T16:15:48.749Z,0.73
2023-05-15T16:18:15.597Z,0.70
2023-05-15T16:20:42.440Z,0.40
2023-05-15T16:23:11.711Z,0.70
2023-05-15T16:25:38.522Z,0.32
2023-05-15T16:28:05.341Z,0.70
2023-05-15T16:30:47.365Z,1.15
2023-05-15T16:33:17.690Z,0.65
2023-05-15T16:35:45.128Z,0.80
2023-05-15T16:38:13.473Z,3.60
2023-05-15T16:40:40.307Z,1.25
2023-05-15T16:43:07.268Z,1.38
2023-05-15T16:45:34.036Z,1.58
2023-05-15T16:48:00.975Z,1.10
2023-05-15T16:50:27.987Z,0.82
2023-05-15T16:52:55.067Z,1.17
2023-05-15T16:55:21.945Z,0.90
2023-05-15T16:57:48.666Z,1.10
2023-05-15T17:00:16.431Z,2.58
2023-05-15T17:02:44.055Z,3.65
2023-05-15T17:05:11.604Z,1.73
2023-05-15T17:07:39.118Z,1.50
2023-05-15T17:10:07.847Z,2.90
2023-05-15T17:12:35.509Z,1.65
2023-05-15T17:15:03.077Z,2.13
2023-05-15T17:17:29.910Z,2.00
2023-05-15T17:19:57.182Z,2.33
2023-05-15T17:22:24.129Z,1.65
2023-05-15T17:24:52.270Z,1.20
2023-05-15T17:27:19.679Z,1.50
2023-05-15T17:29:47.449Z,1.85
2023-05-15T17:32:14.309Z,0.98
2023-05-15T17:34:41.220Z,1.70
2023-05-15T17:37:08.377Z,1.55
2023-05-15T17:39:35.514Z,1.30
2023-05-15T17:42:03.381Z,1.88
2023-05-15T17:44:31.297Z,1.40
2023-05-15T17:46:58.599Z,2.35
2023-05-15T17:49:26.361Z,0.70
2023-05-15T17:51:53.780Z,1.02
2023-05-15T17:54:20.765Z,0.60
2023-05-15T17:56:48.343Z,1.10
2023-05-15T17:59:15.475Z,1.40
2023-05-15T18:01:42.624Z,1.23
2023-05-15T18:04:09.527Z,1.02
2023-05-15T18:06:36.799Z,0.90
2023-05-15T18:09:05.216Z,0.98
2023-05-15T18:11:32.081Z,1.25
2023-05-15T18:13:58.859Z,1.00
2023-05-15T18:16:25.803Z,1.30
2023-05-15T18:18:52.921Z,0.60
2023-05-15T18:21:20.081Z,1.20
2023-05-15T18:23:46.795Z,1.15
2023-05-15T18:26:13.568Z,1.25
2023-05-15T18:28:40.350Z,0.80
2023-05-15T18:31:07.409Z,0.73
2023-05-15T18:33:34.641Z,1.90
2023-05-15T18:36:01.443Z,1.00
2023-05-15T18:38:28.881Z,1.02
2023-05-15T18:40:55.676Z,1.20
2023-05-15T18:43:22.404Z,1.35
2023-05-15T18:45:49.192Z,0.80
2023-05-15T18:48:15.918Z,0.95
2023-05-15T18:50:42.807Z,1.50
2023-05-15T18:53:10.851Z,1.35
2023-05-15T18:55:38.959Z,1.15
2023-05-15T18:58:06.206Z,1.02
2023-05-15T19:00:39.022Z,0.90
2023-05-15T19:03:07.076Z,2.53
2023-05-15T19:05:34.329Z,1.40
2023-05-15T19:08:02.017Z,0.82
2023-05-15T19:10:29.775Z,0.70
2023-05-15T19:12:57.476Z,0.50
2023-05-15T19:15:25.377Z,1.15
2023-05-15T19:17:52.296Z,0.70
2023-05-15T19:20:19.503Z,0.75
2023-05-15T19:22:46.427Z,1.88
2023-05-15T19:25:13.310Z,0.70
2023-05-15T19:27:40.302Z,1.08
2023-05-15T19:30:07.953Z,0.80
2023-05-15T19:32:34.930Z,1.27
2023-05-15T19:35:02.767Z,0.63
2023-05-15T19:37:29.841Z,0.80
2023-05-15T19:39:57.224Z,1.10
2023-05-15T19:42:24.444Z,1.02
2023-05-15T19:44:51.207Z,0.90
2023-05-15T19:47:18.234Z,1.10
2023-05-15T19:49:45.926Z,1.13
2023-05-15T19:52:12.658Z,1.02
2023-05-15T19:54:39.360Z,0.70
2023-05-15T19:57:06.206Z,1.25
2023-05-15T19:59:32.980Z,1.38
2023-05-15T20:02:01.913Z,1.95
2023-05-15T20:04:29.350Z,1.08
2023-05-15T20:06:56.388Z,1.27
2023-05-15T20:09:23.284Z,1.58
2023-05-15T20:11:50.563Z,0.98
2023-05-15T20:14:17.487Z,1.92
2023-05-15T20:16:44.800Z,0.73
2023-05-15T20:19:12.675Z,2.10
2023-05-15T20:21:39.802Z,1.85
2023-05-15T20:24:07.132Z,0.98
2023-05-15T20:26:36.117Z,1.00
2023-05-15T20:29:03.696Z,1.85
2023-05-15T20:31:30.664Z,1.30
2023-05-15T20:33:57.692Z,1.23
2023-05-15T20:36:25.777Z,1.13
2023-05-15T20:38:52.947Z,0.85
2023-05-15T20:41:22.274Z,1.23
2023-05-15T20:43:49.850Z,1.50
2023-05-15T20:46:16.823Z,1.35
2023-05-15T20:48:43.542Z,0.90
2023-05-15T20:51:10.295Z,1.10
2023-05-15T20:53:36.994Z,1.65
2023-05-15T20:56:03.945Z,1.77
2023-05-15T20:58:30.800Z,1.00
2023-05-15T21:01:00.993Z,1.10
2023-05-15T21:03:29.058Z,1.20
2023-05-15T21:05:57.553Z,1.30
2023-05-15T21:08:25.643Z,1.15
2023-05-15T21:10:55.501Z,1.65
2023-05-15T21:13:22.458Z,1.80
2023-05-15T21:15:50.625Z,1.50
2023-05-15T21:18:19.571Z,2.35
2023-05-15T21:20:46.300Z,1.38
2023-05-15T21:23:13.565Z,1.90
2023-05-15T21:25:42.549Z,2.10
2023-05-15T21:28:09.561Z,2.65
2023-05-15T21:30:36.268Z,2.60
2023-05-15T21:33:04.105Z,2.60
2023-05-15T21:35:31.932Z,3.70
2023-05-15T21:37:58.803Z,2.38
2023-05-15T21:40:25.804Z,2.10
2023-05-15T21:42:52.754Z,2.55
2023-05-15T21:45:19.635Z,4.07
2023-05-15T21:47:46.370Z,2.45
2023-05-15T21:50:17.674Z,2.17
2023-05-15T21:52:44.426Z,3.22
2023-05-15T21:55:11.356Z,2.92
2023-05-15T21:57:38.246Z,2.55
2023-05-15T22:00:07.542Z,2.13
2023-05-15T22:02:35.028Z,2.10
2023-05-15T22:05:02.097Z,1.55
2023-05-15T22:07:28.818Z,1.45
2023-05-15T22:09:55.970Z,2.22
2023-05-15T22:12:22.852Z,1.80
2023-05-15T22:14:58.481Z,2.17
2023-05-15T22:17:29.194Z,1.70
2023-05-15T22:20:06.487Z,1.52
2023-05-15T22:22:35.191Z,1.85
2023-05-15T22:25:01.956Z,1.58
2023-05-15T22:27:28.775Z,1.83
2023-05-15T22:29:55.865Z,1.60
2023-05-15T22:32:23.316Z,1.60
2023-05-15T22:34:50.068Z,1.40
2023-05-15T22:37:16.797Z,1.55
2023-05-15T22:39:43.865Z,2.63
2023-05-15T22:42:10.650Z,1.60
2023-05-15T22:44:37.335Z,1.98
2023-05-15T22:47:04.258Z,1.77
2023-05-15T22:49:31.038Z,1.95
2023-05-15T22:51:58.269Z,1.45
2023-05-15T22:54:25.076Z,1.40
2023-05-15T22:56:52.591Z,1.30
2023-05-15T22:59:19.682Z,3.13
2023-05-15T23:01:46.886Z,2.05
2023-05-15T23:04:14.098Z,2.05
2023-05-15T23:06:41.159Z,2.60
2023-05-15T23:09:08.663Z,3.15
2023-05-15T23:11:35.652Z,2.92
2023-05-15T23:14:03.154Z,3.03
2023-05-15T23:16:31.191Z,3.88
2023-05-15T23:18:58.187Z,3.03
2023-05-15T23:21:25.067Z,3.67
2023-05-15T23:23:51.830Z,2.30
2023-05-15T23:26:18.599Z,2.30
2023-05-15T23:28:45.421Z,3.40
2023-05-15T23:31:15.227Z,1.33
2023-05-15T23:33:42.996Z,0.73
2023-05-15T23:36:09.970Z,0.85
2023-05-15T23:38:39.955Z,1.20
2023-05-15T23:41:06.770Z,0.80
2023-05-15T23:43:33.503Z,1.00
2023-05-15T23:46:00.377Z,1.20
2023-05-15T23:48:28.575Z,1.00
2023-05-15T23:50:55.479Z,0.90
2023-05-15T23:53:22.221Z,1.40
2023-05-15T23:55:49.082Z,0.90
2023-05-15T23:58:15.905Z,0.95
